Heron, Montana
Current Conditions -  °F | °C
As of 11:15 AM on Thursday 30 Oct 2014 (Local Time) from KSZT Reporting Station
Scattered Clouds Scattered Clouds  
Wind Chill: 41°   Ceiling: Unl
Heat Index: 46°   Visibility: 10mi
Dew Point: 43°   Wind: 13mph
Humidity: 87%   Direction: 30°NNE
Pressure: 30.16"   Gusts: NA
Location:  48.06°N, 115.96°W
Report Text: KSZT 301715Z AUTO 03011KT 10SM SCT080 08/06 A3016 RMK AO2
Loading
Personal Weather Stations






























Interactive Weather Map
Tropical Storm Tracking
New forecast layout! Learn more

10-Day Weather Forecast

Advertisements
Track Severe Weather on mobile